New Orleans, LA (70145)

2:04 AM CST on March 06, 2015 (GMT -0600)
Gentilly Terrace | Change Station
CLOSE
Current Station
Personal Weather Station
Location: New Orleans, LA
Elevation: 15 ft
Nearby Weather Stations
Active Advisory: Freeze Warning

Elev 15 ft 30.00 °N, 90.05 °W | Updated 19 seconds ago

Clear
Clear
33.3 °F
Feels Like 26 °F
N
9.0
Wind Variable Wind from NE
Gusts 15.0 mph

Today
High -- | Low -- °F
--% Chance of Precip.
Yesterday
High -- | Low -- °F
Precip. -- in
6:20 AM 6:02 PM
Full, 100% visible
Pressure 30.43 in
Visibility 10.0 miles
Clouds Clear
Windchill 26 °F
Dew Point 27 °F
Humidity 78%
Rainfall in
Snow Depth Not available.
UV 0 out of 12
Pollen 5.20 out of 12
Air Quality Not available.
Flu Activity Not available.
METAR KNEW 060753Z AUTO 02021KT 10SM CLR 02/M04 A3045 RMK AO2 PK WND 01029/0728 SLP304 T00221039 TSNO

More Conditions Fewer Conditions

Pressure 30.43 in
Visibility 10.0 miles
Clouds Clear
Windchill 26 °F
Dew Point 27 °F
Humidity 78%
Rainfall in
Snow Depth Not available.
UV 0 out of 12
Pollen 5.20 out of 12
Air Quality Not available.
Flu Activity Not available.
METAR KNEW 060753Z AUTO 02021KT 10SM CLR 02/M04 A3045 RMK AO2 PK WND 01029/0728 SLP304 T00221039 TSNO

More Conditions Fewer Conditions

10-Day Weather Forecast

Almanac

Astronomy

Mar. 06, 2015 Rise Set
Actual Time
Civil Twilight
Nautical Twilight
Astronomical Twilight
Moon
Length of Visible Light
Length of Day
Tomorrow will be .
, % of the Moon is Illuminated

Today's Extremes

State Highs State Lows

Community

WunderPhotos

Upload Photos

1,803,199 photos uploaded!

WunderBlogs® & News

Nearby

Air Quality

  Air Quality AQ Index Pollutant
Not available.

Snow Depth

Station Depth Elevation

Earthquake Activity

City Distance Mag. Time & Date
Minimum magnitude displayed is 2.5.

Coastal Water Temperatures

Place Temperature

Nearby Weather Stations

Freeze Warning
Statement as of 11:53 PM CST on March 05, 2015

... Freeze warning remains in effect from 3 am to 7 am CST
Friday...
... Wind Advisory will expire at midnight CST tonight...

* temperature... near or slightly below freezing temperatures
expected late tonight and early Friday morning.

* Duration... 1 to 4 hours of freezing temperatures can be
expected away from urban heat effects.

* Impacts... freezing temperatures can damage sensitive vegetation
and are dangerous for outdoor pets.

Precautionary/preparedness actions...

A freeze warning means sub-freezing temperatures are imminent or
highly likely. These conditions will kill crops and other
sensitive vegetation.